KLFK

Angelina County Airport

Lufkin, Texas, USA
METAR KLFK 200853Z AUTO 12005KT 10SM SCT050 SCT110 24/23 A2987 RMK AO2 RAE45 SLP112 P0000 60002 T02390233 56017 TSNO
Observed Flight Rules
Jun-20 @ 08:53 UTC (19 minutes ago) Visual Flight Rules
Wind Visibility Clouds
120° at 5 knots 10 miles
  • Scattered at 5,000' AGL
  • Scattered at 11,000' AGL
Temperatures Readings Precipitation
Current 24°C / 75°F
Dewpoint 23°C / 73°F
Humidity 94%
Altimeter 29.87" Hg
Pressure 1011.2 hPa
Elevation 88
Current Rain 0.005
METAR KLFK 200853Z AUTO 12005KT 10SM SCT050 SCT110 24/23 A2987 RMK AO2 RAE45 SLP112 P0000 60002 T02390233 56017 TSNO
Observed Flight Rules
Jun-20 @ 08:53 UTC
(19 minutes ago)
VFR
Wind Visibility
120° at 5 knots 10 miles
Clouds
  • Scattered at 5,000' AGL
  • Scattered at 11,000' AGL
Temperature Dewpoint
24°C / 75°F 23°C / 73°F
Humidity Altimeter Pressure
94% 29.87" Hg 1011.2 hPa
Current Rain
0.005